Time;durP1;ratioP1;P1;durP2;ratioP2;P2;SDS_P1;SDS_P2;PMS_P1;PMS_P2;Temp;Humidity;BMP_temperature;BMP_pressure;BME280_temperature;BME280_humidity;BME280_pressure;Samples;Min_cycle;Max_cycle;Signal;HPM_P1;HPM_P2
2022/08/11 00:00:49;;;;;;;0.77;0.47;;;20.00;99.90;;;;;;20507777;28;20039;-40
2022/08/11 00:10:57;;;;;;;0.95;0.47;;;19.90;99.90;;;;;;20509506;28;20103;-40
2022/08/11 00:20:59;;;;;;;1.25;0.68;;;19.80;99.90;;;;;;20516557;28;20164;-40
2022/08/11 00:31:36;;;;;;;4.05;0.43;;;19.60;99.90;;;;;;20518392;28;20130;-40
2022/08/11 00:41:58;;;;;;;1.33;0.80;;;19.50;99.90;;;;;;20408318;28;20917;-40
2022/08/11 00:52:09;;;;;;;1.30;0.47;;;19.30;99.90;;;;;;20516366;28;20062;-40
2022/08/11 01:02:45;;;;;;;2.65;1.08;;;19.20;99.90;;;;;;20499881;28;20105;-40
2022/08/11 01:13:31;;;;;;;1.33;0.50;;;19.20;99.90;;;;;;20474481;28;20133;-40
2022/08/11 01:24:28;;;;;;;1.00;0.50;;;19.10;99.90;;;;;;20495013;28;20849;-40
2022/08/11 01:35:17;;;;;;;1.90;0.77;;;19.00;99.90;;;;;;20522204;28;20345;-40
2022/08/11 01:45:31;;;;;;;1.77;0.68;;;18.80;99.90;;;;;;20503257;28;21023;-40
2022/08/11 01:56:03;;;;;;;3.80;0.65;;;18.70;99.90;;;;;;20497290;28;21873;-40
2022/08/11 02:06:55;;;;;;;1.75;0.70;;;18.60;99.90;;;;;;20510443;28;20684;-40
2022/08/11 02:17:18;;;;;;;1.20;0.60;;;18.60;99.90;;;;;;20475072;28;21675;-40
2022/08/11 02:27:23;;;;;;;1.30;0.65;;;18.40;99.90;;;;;;20518045;28;20485;-40
2022/08/11 02:37:42;;;;;;;2.20;0.50;;;18.40;99.90;;;;;;20528594;28;20438;-39
2022/08/11 02:58:37;;;;;;;1.20;0.65;;;18.30;99.90;;;;;;20532714;28;20436;-40
2022/08/11 03:09:22;;;;;;;2.47;0.73;;;18.20;99.90;;;;;;20517159;28;21223;-40
2022/08/11 03:19:55;;;;;;;2.63;0.90;;;18.10;99.90;;;;;;20507613;28;20806;-40
2022/08/11 03:30:20;;;;;;;1.20;0.50;;;18.10;99.90;;;;;;20474677;28;21872;-40
2022/08/11 03:51:31;;;;;;;1.88;0.55;;;18.00;99.90;;;;;;20511048;28;21044;-40
2022/08/11 04:01:57;;;;;;;1.40;0.80;;;17.90;99.90;;;;;;20511801;28;21431;-40
2022/08/11 04:12:12;;;;;;;3.30;0.93;;;17.90;99.90;;;;;;20511265;28;20962;-40
2022/08/11 04:22:19;;;;;;;1.42;0.55;;;17.80;99.90;;;;;;20507587;28;20736;-40
2022/08/11 04:32:29;;;;;;;1.90;0.80;;;17.70;99.90;;;;;;20517484;28;20641;-40
2022/08/11 05:36:00;;;;;;;2.15;0.70;;;18.10;99.90;;;;;;20502639;28;20924;-39
2022/08/11 05:56:23;;;;;;;1.27;0.63;;;19.00;99.90;;;;;;20504148;28;20988;-39
2022/08/11 06:06:27;;;;;;;2.45;0.80;;;19.50;99.90;;;;;;20515108;28;20129;-39
2022/08/11 06:16:29;;;;;;;1.83;0.73;;;19.80;99.90;;;;;;20513836;28;20064;-40
2022/08/11 06:26:30;;;;;;;1.58;0.80;;;20.20;99.90;;;;;;20518639;28;20125;-40
2022/08/11 06:36:42;;;;;;;2.10;0.60;;;20.50;99.90;;;;;;20503112;28;20573;-40
2022/08/11 06:46:46;;;;;;;1.33;0.63;;;20.90;99.90;;;;;;20508090;28;21777;-40
2022/08/11 07:38:55;;;;;;;1.50;0.70;;;22.00;99.90;;;;;;20501880;28;20812;-40
2022/08/11 08:19:59;;;;;;;1.25;0.82;;;23.00;99.90;;;;;;20530334;28;20039;-40
2022/08/11 08:40:23;;;;;;;2.20;0.90;;;23.70;99.90;;;;;;20535074;28;20773;-40
2022/08/11 08:51:33;;;;;;;1.17;0.43;;;24.20;99.90;;;;;;20510118;28;20094;-40
2022/08/11 09:00:53;;;;;;;2.33;0.88;;;24.80;99.90;;;;;;20533854;28;20765;-40
2022/08/11 09:21:19;;;;;;;3.13;0.70;;;25.70;99.90;;;;;;20524259;28;20038;-40
2022/08/11 09:31:21;;;;;;;1.33;0.75;;;26.20;99.90;;;;;;20533832;28;21898;-40
2022/08/11 09:41:22;;;;;;;1.90;1.00;;;26.60;99.90;;;;;;20536377;28;20912;-40
2022/08/11 09:51:24;;;;;;;1.40;1.00;;;27.10;99.90;;;;;;20536131;28;20097;-40
2022/08/11 10:01:36;;;;;;;1.13;0.50;;;27.70;99.20;;;;;;20509124;28;21619;-40
2022/08/11 10:11:39;;;;;;;1.52;0.93;;;28.20;99.40;;;;;;20529215;28;20301;-40
2022/08/11 10:21:43;;;;;;;1.05;0.60;;;28.60;98.10;;;;;;20492976;28;20918;-40
2022/08/11 11:02:47;;;;;;;1.13;0.40;;;29.20;96.70;;;;;;20506269;28;21768;-45
2022/08/11 11:23:24;;;;;;;1.40;0.65;;;30.10;95.10;;;;;;20505037;28;20122;-40
2022/08/11 11:33:40;;;;;;;1.02;0.43;;;30.80;91.70;;;;;;20506981;28;20870;-40
2022/08/11 11:43:42;;;;;;;1.90;1.05;;;31.10;90.20;;;;;;20509113;28;20945;-40
2022/08/11 11:53:45;;;;;;;1.23;0.68;;;31.60;85.10;;;;;;20520820;28;20152;-40
2022/08/11 12:03:49;;;;;;;1.77;0.80;;;31.90;84.60;;;;;;20503773;28;20125;-40
2022/08/11 12:13:57;;;;;;;1.38;0.90;;;32.20;82.30;;;;;;20504695;28;20125;-40
2022/08/11 12:34:21;;;;;;;1.60;0.65;;;32.90;78.70;;;;;;20505853;28;20073;-40
2022/08/11 12:54:56;;;;;;;1.20;0.60;;;33.10;79.20;;;;;;20493661;28;20896;-41
2022/08/11 13:05:00;;;;;;;1.20;0.57;;;33.20;76.50;;;;;;20504150;28;20239;-40
2022/08/11 13:15:03;;;;;;;1.90;1.10;;;33.40;75.70;;;;;;20511055;28;20066;-41
2022/08/11 13:25:06;;;;;;;1.20;0.38;;;33.80;74.70;;;;;;20486379;28;20676;-41
2022/08/11 13:35:08;;;;;;;1.10;0.50;;;34.10;74.90;;;;;;20494723;28;20336;-40
2022/08/11 13:45:10;;;;;;;0.63;0.32;;;34.50;71.20;;;;;;20494502;28;20422;-40
2022/08/11 13:55:20;;;;;;;1.15;0.45;;;35.00;68.80;;;;;;20487775;28;20288;-41
2022/08/11 14:05:27;;;;;;;1.50;0.50;;;34.90;75.60;;;;;;20475385;28;21036;-41
2022/08/11 14:15:34;;;;;;;1.23;0.50;;;34.10;77.60;;;;;;20475654;28;20100;-40
2022/08/11 14:25:35;;;;;;;0.85;0.35;;;33.10;81.70;;;;;;20489725;28;20069;-40
2022/08/11 14:35:37;;;;;;;2.38;0.65;;;32.30;82.80;;;;;;20499052;28;20134;-40
2022/08/11 15:06:19;;;;;;;1.30;0.68;;;31.20;86.30;;;;;;20485811;28;20030;-40
2022/08/11 15:37:26;;;;;;;0.50;0.28;;;30.60;86.90;;;;;;20488661;28;20198;-40
2022/08/11 15:47:35;;;;;;;0.90;0.37;;;30.40;86.80;;;;;;20496716;28;20861;-40
2022/08/11 16:07:59;;;;;;;0.75;0.32;;;30.00;88.40;;;;;;20481574;28;20895;-40
2022/08/11 16:18:05;;;;;;;0.90;0.32;;;29.90;88.90;;;;;;20491451;28;20194;-40
2022/08/11 16:28:08;;;;;;;2.30;0.40;;;29.80;88.40;;;;;;20484352;28;20126;-40
2022/08/11 16:48:34;;;;;;;0.77;0.30;;;29.30;90.10;;;;;;20536751;28;20822;-40
2022/08/11 17:19:26;;;;;;;1.95;0.38;;;28.70;91.20;;;;;;20518601;28;20945;-40
2022/08/11 17:29:36;;;;;;;1.33;0.47;;;28.50;92.50;;;;;;20510950;28;20133;-40
2022/08/11 17:39:37;;;;;;;0.88;0.40;;;28.30;92.10;;;;;;20503513;28;20712;-40
2022/08/11 17:49:39;;;;;;;0.88;0.40;;;28.00;93.00;;;;;;20513981;28;20093;-40
2022/08/11 17:59:51;;;;;;;1.63;0.38;;;27.90;94.10;;;;;;20533048;28;20050;-39
